DRK1184 OMDB-EGPH
Flight info
| Callsign | DRK1184 |
|---|---|
| Flight time | N/A |
| Altitude | 29000 |
| Route | ANVIX L223 TARDI N629 BOTAM/N0499F310 Y855 LAKLU/N0490F300 Q204 NALKI G652 TOKRA DCT ALROK DCT BOSOB/N0501F320 DCT ITRUX Y511 PMA Z712 WEJ L677 GESON Q777 LAGVI/N0489F340 Q777 RASDA DCT OTHON DCT VAXOS DCT RDS UL609 MES DCT FSK DCT DISOR DCT LONTA UL608 DOLEV DCT RADLY DCT SIMBA DCT KEMES/N0486F360 DCT GASKA DCT MAPOX DCT SOGPO DCT SPY DCT MIMVA L602 NALAX L46 ESHIN N110 ERKIT DCT AGPED |
| Aircraft | B772/H-SDE2E3FGHIJ5LORVWXY/LB1D1 |
Departure
| Time | N/A |
|---|---|
| Airport | Dubai International Airport (OMDB) |
Arrival
| Time | 2026-04-20 02:40 |
|---|---|
| Airport | Edinburgh Airport (EGPH) |
| Time | Latitude | Longitude | Altitude | Speed | Heading |
|---|---|---|---|---|---|
| 2026-04-20 02:12 | 54.79479 | -1.06706 | 38315 ft | 473 kts | 304° |
| 2026-04-20 02:12 | 54.83072 | -1.16238 | 38314 ft | 473 kts | 304° |
| 2026-04-20 02:13 | 54.84861 | -1.20997 | 38157 ft | 465 kts | 304° |
| 2026-04-20 02:13 | 54.86597 | -1.25627 | 37634 ft | 461 kts | 304° |
| 2026-04-20 02:13 | 54.88363 | -1.30342 | 36740 ft | 464 kts | 304° |
| 2026-04-20 02:13 | 54.90111 | -1.35018 | 35859 ft | 468 kts | 304° |
| 2026-04-20 02:14 | 54.91893 | -1.39793 | 35042 ft | 470 kts | 304° |
| 2026-04-20 02:14 | 54.93677 | -1.44584 | 34258 ft | 470 kts | 304° |
| 2026-04-20 02:14 | 54.95454 | -1.49367 | 33390 ft | 469 kts | 304° |
| 2026-04-20 02:14 | 54.97209 | -1.54099 | 32554 ft | 468 kts | 304° |
| 2026-04-20 02:15 | 54.98968 | -1.58851 | 31724 ft | 466 kts | 304° |
| 2026-04-20 02:15 | 55.00721 | -1.63597 | 30914 ft | 463 kts | 304° |
| 2026-04-20 02:15 | 55.02460 | -1.68315 | 30086 ft | 460 kts | 303° |
| 2026-04-20 02:15 | 55.04182 | -1.72993 | 29127 ft | 455 kts | 304° |
| 2026-04-20 02:16 | 55.05865 | -1.77575 | 28215 ft | 451 kts | 304° |
| 2026-04-20 02:16 | 55.07547 | -1.82159 | 27332 ft | 447 kts | 304° |
| 2026-04-20 02:16 | 55.09218 | -1.86724 | 26451 ft | 443 kts | 304° |
| 2026-04-20 02:16 | 55.10987 | -1.91028 | 25626 ft | 439 kts | 311° |
| 2026-04-20 02:17 | 55.13068 | -1.94920 | 24808 ft | 435 kts | 316° |
| 2026-04-20 02:17 | 55.15321 | -1.98439 | 23935 ft | 433 kts | 321° |
| 2026-04-20 02:17 | 55.17747 | -2.01452 | 22933 ft | 430 kts | 327° |
| 2026-04-20 02:17 | 55.20260 | -2.04308 | 21949 ft | 428 kts | 327° |
| 2026-04-20 02:18 | 55.22756 | -2.07139 | 21003 ft | 426 kts | 327° |
| 2026-04-20 02:18 | 55.25243 | -2.09970 | 20127 ft | 423 kts | 327° |
| 2026-04-20 02:18 | 55.27679 | -2.12759 | 19363 ft | 418 kts | 327° |
| 2026-04-20 02:18 | 55.30105 | -2.15552 | 18639 ft | 413 kts | 327° |
| 2026-04-20 02:19 | 55.32092 | -2.17847 | 17952 ft | 410 kts | 327° |
| 2026-04-20 02:22 | 55.33384 | -2.19344 | 17502 ft | 407 kts | 327° |
| 2026-04-20 02:23 | 55.34909 | -2.21113 | 16940 ft | 385 kts | 327° |
| 2026-04-20 02:23 | 55.37065 | -2.23620 | 16126 ft | 357 kts | 327° |
| 2026-04-20 02:23 | 55.39077 | -2.25962 | 15341 ft | 335 kts | 327° |
| 2026-04-20 02:23 | 55.40954 | -2.28150 | 14593 ft | 319 kts | 327° |
| 2026-04-20 02:24 | 55.42771 | -2.30271 | 13828 ft | 305 kts | 327° |
| 2026-04-20 02:24 | 55.44529 | -2.32324 | 13148 ft | 305 kts | 327° |
| 2026-04-20 02:24 | 55.46317 | -2.34413 | 12482 ft | 311 kts | 327° |
| 2026-04-20 02:24 | 55.48135 | -2.36540 | 11839 ft | 316 kts | 327° |
| 2026-04-20 02:25 | 55.49959 | -2.38677 | 11234 ft | 320 kts | 327° |
| 2026-04-20 02:25 | 55.51827 | -2.40868 | 10604 ft | 324 kts | 327° |
| 2026-04-20 02:25 | 55.53716 | -2.43086 | 9968 ft | 327 kts | 327° |
| 2026-04-20 02:25 | 55.55619 | -2.45323 | 9434 ft | 327 kts | 327° |
| 2026-04-20 02:26 | 55.57512 | -2.47550 | 8881 ft | 326 kts | 326° |
| 2026-04-20 02:26 | 55.59373 | -2.49744 | 8366 ft | 324 kts | 326° |
| 2026-04-20 02:26 | 55.61254 | -2.51963 | 7843 ft | 323 kts | 326° |
| 2026-04-20 02:26 | 55.63111 | -2.54156 | 7458 ft | 318 kts | 326° |
| 2026-04-20 02:27 | 55.64938 | -2.56318 | 7083 ft | 314 kts | 326° |
| 2026-04-20 02:27 | 55.66744 | -2.58456 | 6712 ft | 309 kts | 326° |
| 2026-04-20 02:27 | 55.68524 | -2.60567 | 6349 ft | 306 kts | 326° |
| 2026-04-20 02:27 | 55.70256 | -2.62624 | 6093 ft | 300 kts | 326° |
| 2026-04-20 02:28 | 55.71972 | -2.64663 | 5818 ft | 294 kts | 326° |
| 2026-04-20 02:28 | 55.73653 | -2.66661 | 5625 ft | 286 kts | 326° |
| 2026-04-20 02:28 | 55.75274 | -2.68592 | 5554 ft | 274 kts | 326° |
| 2026-04-20 02:28 | 55.76828 | -2.70443 | 5482 ft | 263 kts | 326° |
| 2026-04-20 02:29 | 55.78313 | -2.72215 | 5406 ft | 251 kts | 326° |
| 2026-04-20 02:29 | 55.79730 | -2.73908 | 5332 ft | 240 kts | 326° |
| 2026-04-20 02:29 | 55.81074 | -2.75512 | 5245 ft | 229 kts | 326° |
| 2026-04-20 02:29 | 55.82357 | -2.77046 | 5224 ft | 214 kts | 326° |
| 2026-04-20 02:30 | 55.83562 | -2.78489 | 5237 ft | 205 kts | 325° |
| 2026-04-20 02:30 | 55.84750 | -2.79912 | 5150 ft | 207 kts | 326° |
| 2026-04-20 02:30 | 55.85922 | -2.81317 | 4980 ft | 199 kts | 326° |
| 2026-04-20 02:30 | 55.87059 | -2.82681 | 4801 ft | 194 kts | 326° |
| 2026-04-20 02:31 | 55.88159 | -2.84002 | 4639 ft | 192 kts | 326° |
| 2026-04-20 02:31 | 55.89273 | -2.85340 | 4475 ft | 193 kts | 326° |
| 2026-04-20 02:31 | 55.90387 | -2.86680 | 4370 ft | 192 kts | 326° |
| 2026-04-20 02:31 | 55.91495 | -2.88013 | 4261 ft | 191 kts | 326° |
| 2026-04-20 02:32 | 55.92582 | -2.89322 | 4155 ft | 191 kts | 326° |
| 2026-04-20 02:32 | 55.93685 | -2.90651 | 4041 ft | 191 kts | 326° |
| 2026-04-20 02:32 | 55.94783 | -2.91974 | 3983 ft | 190 kts | 326° |
| 2026-04-20 02:32 | 55.95881 | -2.93300 | 3911 ft | 190 kts | 326° |
| 2026-04-20 02:33 | 55.96979 | -2.94625 | 3814 ft | 190 kts | 326° |
| 2026-04-20 02:33 | 55.98077 | -2.95951 | 3761 ft | 190 kts | 326° |
| 2026-04-20 02:33 | 55.99159 | -2.97258 | 3723 ft | 190 kts | 326° |
| 2026-04-20 02:33 | 56.00254 | -2.98582 | 3667 ft | 190 kts | 326° |
| 2026-04-20 02:34 | 56.01351 | -2.99911 | 3598 ft | 191 kts | 326° |
| 2026-04-20 02:34 | 56.02455 | -3.01248 | 3545 ft | 191 kts | 326° |
| 2026-04-20 02:34 | 56.03558 | -3.02585 | 3482 ft | 191 kts | 326° |
| 2026-04-20 02:34 | 56.04602 | -3.04041 | 3393 ft | 189 kts | 309° |
| 2026-04-20 02:35 | 56.05042 | -3.06203 | 3338 ft | 191 kts | 273° |
| 2026-04-20 02:35 | 56.04700 | -3.08476 | 3282 ft | 192 kts | 241° |
| 2026-04-20 02:35 | 56.04017 | -3.10493 | 3263 ft | 187 kts | 241° |
| 2026-04-20 02:35 | 56.03373 | -3.12447 | 3162 ft | 177 kts | 241° |
| 2026-04-20 02:36 | 56.02750 | -3.14306 | 2975 ft | 170 kts | 241° |
| 2026-04-20 02:36 | 56.02168 | -3.16033 | 2775 ft | 156 kts | 241° |
| 2026-04-20 02:36 | 56.01619 | -3.17659 | 2555 ft | 149 kts | 241° |
| 2026-04-20 02:36 | 56.01079 | -3.19261 | 2350 ft | 152 kts | 242° |
| 2026-04-20 02:37 | 56.00536 | -3.20870 | 2154 ft | 153 kts | 242° |
| 2026-04-20 02:37 | 55.99989 | -3.22490 | 1923 ft | 151 kts | 242° |
| 2026-04-20 02:37 | 55.99448 | -3.24094 | 1718 ft | 150 kts | 242° |
| 2026-04-20 02:37 | 55.98908 | -3.25691 | 1497 ft | 150 kts | 242° |
| 2026-04-20 02:38 | 55.98373 | -3.27275 | 1285 ft | 148 kts | 242° |
| 2026-04-20 02:38 | 55.97849 | -3.28828 | 1069 ft | 147 kts | 241° |
| 2026-04-20 02:38 | 55.97318 | -3.30396 | 843 ft | 146 kts | 241° |
| 2026-04-20 02:38 | 55.96793 | -3.31943 | 646 ft | 145 kts | 240° |
| 2026-04-20 02:39 | 55.96271 | -3.33481 | 431 ft | 145 kts | 240° |
| 2026-04-20 02:39 | 55.95747 | -3.35021 | 241 ft | 145 kts | 239° |
| 2026-04-20 02:39 | 55.95231 | -3.36559 | 115 ft | 141 kts | 239° |
| 2026-04-20 02:39 | 55.94791 | -3.37866 | 111 ft | 85 kts | 239° |
| 2026-04-20 02:40 | 55.94613 | -3.38390 | 110 ft | 38 kts | 238° |
| 2026-04-20 02:40 | 55.94480 | -3.38780 | 109 ft | 31 kts | 238° |
| 2026-04-20 02:40 | 55.94361 | -3.38933 | 110 ft | 21 kts | 165° |
| 2026-04-20 02:40 | 55.94293 | -3.38773 | 108 ft | 17 kts | 74° |
| 2026-04-20 02:41 | 55.94354 | -3.38594 | 110 ft | 17 kts | 58° |
| 2026-04-20 02:41 | 55.94413 | -3.38414 | 109 ft | 17 kts | 60° |
| 2026-04-20 02:41 | 55.94464 | -3.38262 | 109 ft | 12 kts | 59° |
| 2026-04-20 02:41 | 55.94508 | -3.38136 | 108 ft | 12 kts | 57° |
| 2026-04-20 02:42 | 55.94554 | -3.38004 | 108 ft | 14 kts | 58° |
| 2026-04-20 02:42 | 55.94612 | -3.37838 | 110 ft | 17 kts | 63° |
| 2026-04-20 02:42 | 55.94677 | -3.37635 | 109 ft | 20 kts | 59° |
| 2026-04-20 02:42 | 55.94750 | -3.37419 | 109 ft | 21 kts | 59° |
| 2026-04-20 02:43 | 55.94824 | -3.37200 | 109 ft | 21 kts | 59° |
| 2026-04-20 02:43 | 55.94898 | -3.36982 | 110 ft | 20 kts | 59° |
| 2026-04-20 02:43 | 55.94910 | -3.36827 | 108 ft | 10 kts | 132° |
| 2026-04-20 02:43 | 55.94849 | -3.36779 | 111 ft | 10 kts | 167° |
| 2026-04-20 02:44 | 55.94784 | -3.36755 | 109 ft | 10 kts | 163° |
| 2026-04-20 02:44 | 55.94744 | -3.36774 | 110 ft | 4 kts | 252° |
| 2026-04-20 02:44 | 55.94743 | -3.36822 | 110 ft | 4 kts | 269° |
| 2026-04-20 02:44 | 55.94743 | -3.36863 | 109 ft | 2 kts | 269° |
| 2026-04-20 02:45 | 55.94743 | -3.36864 | 109 ft | 0 kts | 269° |